sensor_id;sensor_type;location;lat;lon;timestamp;pressure;altitude;pressure_sealevel;temperature;humidity
49611;BME280;35515;48.766;9.176;2022-09-20T00:02:19;98846.31;;;9.67;92.37
49611;BME280;35515;48.766;9.176;2022-09-20T00:04:47;98855.19;;;9.61;92.64
49611;BME280;35515;48.766;9.176;2022-09-20T00:07:13;98851.63;;;9.75;91.97
49611;BME280;35515;48.766;9.176;2022-09-20T00:09:40;98847.13;;;9.82;91.07
49611;BME280;35515;48.766;9.176;2022-09-20T00:12:06;98847.34;;;9.66;92.14
49611;BME280;35515;48.766;9.176;2022-09-20T00:14:33;98844.28;;;9.54;93.10
49611;BME280;35515;48.766;9.176;2022-09-20T00:17:01;98840.25;;;9.65;92.26
49611;BME280;35515;48.766;9.176;2022-09-20T00:19:27;98839.56;;;9.78;91.91
49611;BME280;35515;48.766;9.176;2022-09-20T00:21:54;98834.03;;;9.64;92.15
49611;BME280;35515;48.766;9.176;2022-09-20T00:24:21;98839.97;;;9.75;91.88
49611;BME280;35515;48.766;9.176;2022-09-20T00:26:47;98837.38;;;9.66;92.03
49611;BME280;35515;48.766;9.176;2022-09-20T00:29:14;98837.94;;;9.62;92.70
49611;BME280;35515;48.766;9.176;2022-09-20T00:31:41;98844.50;;;9.52;93.13
49611;BME280;35515;48.766;9.176;2022-09-20T00:34:09;98842.19;;;9.49;93.26
49611;BME280;35515;48.766;9.176;2022-09-20T00:36:56;98845.81;;;9.42;93.14
49611;BME280;35515;48.766;9.176;2022-09-20T00:39:22;98845.75;;;9.35;94.10
49611;BME280;35515;48.766;9.176;2022-09-20T00:41:49;98841.78;;;9.52;92.93
49611;BME280;35515;48.766;9.176;2022-09-20T00:44:44;98846.81;;;9.56;93.24
49611;BME280;35515;48.766;9.176;2022-09-20T00:47:18;98843.31;;;9.40;93.51
49611;BME280;35515;48.766;9.176;2022-09-20T00:49:48;98833.03;;;9.50;93.03
49611;BME280;35515;48.766;9.176;2022-09-20T00:52:17;98826.69;;;9.43;93.45
49611;BME280;35515;48.766;9.176;2022-09-20T00:54:45;98832.09;;;9.43;93.38
49611;BME280;35515;48.766;9.176;2022-09-20T00:57:12;98830.53;;;9.34;94.65
49611;BME280;35515;48.766;9.176;2022-09-20T00:59:40;98833.91;;;9.36;94.64
49611;BME280;35515;48.766;9.176;2022-09-20T01:02:11;98831.81;;;9.53;94.26
49611;BME280;35515;48.766;9.176;2022-09-20T01:04:40;98839.34;;;9.58;93.47
49611;BME280;35515;48.766;9.176;2022-09-20T01:07:10;98837.66;;;9.57;92.66
49611;BME280;35515;48.766;9.176;2022-09-20T01:09:39;98833.56;;;9.61;92.59
49611;BME280;35515;48.766;9.176;2022-09-20T01:12:09;98832.00;;;9.51;92.61
49611;BME280;35515;48.766;9.176;2022-09-20T01:14:37;98832.50;;;9.40;93.70
49611;BME280;35515;48.766;9.176;2022-09-20T01:17:05;98827.84;;;9.34;94.19
49611;BME280;35515;48.766;9.176;2022-09-20T01:19:37;98825.03;;;9.27;94.05
49611;BME280;35515;48.766;9.176;2022-09-20T01:22:15;98836.88;;;9.41;93.53
49611;BME280;35515;48.766;9.176;2022-09-20T01:24:52;98834.91;;;9.35;93.28
49611;BME280;35515;48.766;9.176;2022-09-20T01:27:23;98841.06;;;9.29;94.20
49611;BME280;35515;48.766;9.176;2022-09-20T01:30:03;98836.53;;;9.29;94.24
49611;BME280;35515;48.766;9.176;2022-09-20T01:32:45;98831.19;;;9.36;93.40
49611;BME280;35515;48.766;9.176;2022-09-20T01:35:16;98833.50;;;9.39;93.07
49611;BME280;35515;48.766;9.176;2022-09-20T01:38:14;98829.34;;;9.58;92.43
49611;BME280;35515;48.766;9.176;2022-09-20T01:40:51;98827.44;;;9.52;91.61
49611;BME280;35515;48.766;9.176;2022-09-20T01:43:26;98832.94;;;9.59;91.41
49611;BME280;35515;48.766;9.176;2022-09-20T01:46:00;98832.22;;;9.35;92.35
49611;BME280;35515;48.766;9.176;2022-09-20T01:48:33;98822.16;;;9.29;92.90
49611;BME280;35515;48.766;9.176;2022-09-20T01:51:32;98830.38;;;9.20;93.21
49611;BME280;35515;48.766;9.176;2022-09-20T01:54:39;98832.88;;;9.37;92.80
49611;BME280;35515;48.766;9.176;2022-09-20T02:00:12;98824.03;;;9.28;92.72
49611;BME280;35515;48.766;9.176;2022-09-20T02:06:00;98826.94;;;9.27;92.60
49611;BME280;35515;48.766;9.176;2022-09-20T02:11:40;98828.22;;;9.31;92.66
49611;BME280;35515;48.766;9.176;2022-09-20T02:14:28;98827.09;;;9.40;92.18
49611;BME280;35515;48.766;9.176;2022-09-20T02:16:57;98824.78;;;9.37;92.38
49611;BME280;35515;48.766;9.176;2022-09-20T02:22:26;98827.75;;;9.27;93.02
49611;BME280;35515;48.766;9.176;2022-09-20T02:25:03;98821.91;;;9.24;93.14
49611;BME280;35515;48.766;9.176;2022-09-20T02:27:39;98823.34;;;9.41;92.33
49611;BME280;35515;48.766;9.176;2022-09-20T02:30:18;98820.38;;;9.36;92.70
49611;BME280;35515;48.766;9.176;2022-09-20T02:33:09;98821.53;;;9.27;93.29
49611;BME280;35515;48.766;9.176;2022-09-20T02:35:54;98814.59;;;9.39;91.73
49611;BME280;35515;48.766;9.176;2022-09-20T02:38:39;98824.56;;;9.39;91.29
49611;BME280;35515;48.766;9.176;2022-09-20T02:41:24;98827.09;;;9.40;91.36
49611;BME280;35515;48.766;9.176;2022-09-20T02:43:59;98833.03;;;9.50;91.16
49611;BME280;35515;48.766;9.176;2022-09-20T02:46:29;98838.69;;;9.56;90.51
49611;BME280;35515;48.766;9.176;2022-09-20T02:49:02;98833.28;;;9.56;90.80
49611;BME280;35515;48.766;9.176;2022-09-20T02:51:38;98841.94;;;9.66;89.55
49611;BME280;35515;48.766;9.176;2022-09-20T02:54:14;98829.81;;;9.62;89.87
49611;BME280;35515;48.766;9.176;2022-09-20T02:56:46;98820.06;;;9.82;88.33
49611;BME280;35515;48.766;9.176;2022-09-20T02:59:30;98827.38;;;9.67;88.89
49611;BME280;35515;48.766;9.176;2022-09-20T03:02:06;98815.16;;;9.71;89.22
49611;BME280;35515;48.766;9.176;2022-09-20T03:04:47;98829.34;;;9.58;89.78
49611;BME280;35515;48.766;9.176;2022-09-20T03:07:29;98827.78;;;9.64;90.01
49611;BME280;35515;48.766;9.176;2022-09-20T03:10:09;98833.25;;;9.70;89.42
49611;BME280;35515;48.766;9.176;2022-09-20T03:12:47;98838.22;;;9.67;89.10
49611;BME280;35515;48.766;9.176;2022-09-20T03:15:24;98826.34;;;9.46;90.34
49611;BME280;35515;48.766;9.176;2022-09-20T03:18:05;98836.00;;;9.56;89.89
49611;BME280;35515;48.766;9.176;2022-09-20T03:20:36;98848.50;;;9.57;90.12
49611;BME280;35515;48.766;9.176;2022-09-20T03:23:15;98843.69;;;9.74;88.65
49611;BME280;35515;48.766;9.176;2022-09-20T03:25:51;98840.75;;;9.53;89.10
49611;BME280;35515;48.766;9.176;2022-09-20T03:28:33;98842.59;;;9.68;88.49
49611;BME280;35515;48.766;9.176;2022-09-20T03:31:09;98839.13;;;9.74;88.06
49611;BME280;35515;48.766;9.176;2022-09-20T03:33:44;98839.66;;;9.84;86.98
49611;BME280;35515;48.766;9.176;2022-09-20T03:36:26;98837.69;;;9.78;86.98
49611;BME280;35515;48.766;9.176;2022-09-20T03:39:10;98844.00;;;9.64;87.40
49611;BME280;35515;48.766;9.176;2022-09-20T03:41:52;98844.28;;;9.54;88.44
49611;BME280;35515;48.766;9.176;2022-09-20T03:44:58;98844.00;;;9.64;88.17
49611;BME280;35515;48.766;9.176;2022-09-20T03:47:49;98837.47;;;9.58;88.67
49611;BME280;35515;48.766;9.176;2022-09-20T03:50:30;98845.03;;;9.63;88.83
49611;BME280;35515;48.766;9.176;2022-09-20T03:53:26;98841.78;;;9.52;89.33
49611;BME280;35515;48.766;9.176;2022-09-20T03:56:29;98844.44;;;9.67;88.56
49611;BME280;35515;48.766;9.176;2022-09-20T03:59:04;98850.38;;;9.56;89.21
49611;BME280;35515;48.766;9.176;2022-09-20T04:01:47;98848.06;;;9.53;89.85
49611;BME280;35515;48.766;9.176;2022-09-20T04:04:24;98851.78;;;9.52;89.63
49611;BME280;35515;48.766;9.176;2022-09-20T04:07:08;98852.13;;;9.49;90.74
49611;BME280;35515;48.766;9.176;2022-09-20T04:10:12;98855.91;;;9.48;90.83
49611;BME280;35515;48.766;9.176;2022-09-20T04:12:53;98849.91;;;9.52;90.99
49611;BME280;35515;48.766;9.176;2022-09-20T04:15:29;98847.00;;;9.54;90.48
49611;BME280;35515;48.766;9.176;2022-09-20T04:18:01;98856.34;;;9.51;90.25
49611;BME280;35515;48.766;9.176;2022-09-20T04:20:36;98850.00;;;9.44;90.36
49611;BME280;35515;48.766;9.176;2022-09-20T04:23:15;98861.84;;;9.43;90.79
49611;BME280;35515;48.766;9.176;2022-09-20T04:25:45;98856.88;;;9.62;90.15
49611;BME280;35515;48.766;9.176;2022-09-20T04:28:18;98859.13;;;9.58;90.20
49611;BME280;35515;48.766;9.176;2022-09-20T04:30:47;98859.03;;;9.66;90.00
49611;BME280;35515;48.766;9.176;2022-09-20T04:33:19;98865.34;;;9.74;88.84
49611;BME280;35515;48.766;9.176;2022-09-20T04:35:56;98866.00;;;9.61;89.39
49611;BME280;35515;48.766;9.176;2022-09-20T04:38:50;98869.78;;;9.60;90.33
49611;BME280;35515;48.766;9.176;2022-09-20T04:41:36;98871.41;;;9.76;90.58
49611;BME280;35515;48.766;9.176;2022-09-20T04:44:44;98876.28;;;9.65;91.81
49611;BME280;35515;48.766;9.176;2022-09-20T04:47:52;98879.00;;;9.65;93.21
49611;BME280;35515;48.766;9.176;2022-09-20T04:51:03;98875.69;;;9.70;94.52
49611;BME280;35515;48.766;9.176;2022-09-20T04:53:46;98878.22;;;9.71;95.87
49611;BME280;35515;48.766;9.176;2022-09-20T04:56:19;98880.81;;;9.80;96.23
49611;BME280;35515;48.766;9.176;2022-09-20T04:58:48;98874.28;;;9.74;98.03
49611;BME280;35515;48.766;9.176;2022-09-20T05:05:08;98884.09;;;9.75;97.43
49611;BME280;35515;48.766;9.176;2022-09-20T05:08:08;98893.06;;;9.76;98.39
49611;BME280;35515;48.766;9.176;2022-09-20T05:10:54;98896.44;;;9.63;100.00
49611;BME280;35515;48.766;9.176;2022-09-20T05:13:37;98894.28;;;9.73;99.24
49611;BME280;35515;48.766;9.176;2022-09-20T05:16:18;98894.53;;;9.78;99.00
49611;BME280;35515;48.766;9.176;2022-09-20T05:19:06;98904.75;;;9.98;98.06
49611;BME280;35515;48.766;9.176;2022-09-20T05:24:48;98898.44;;;9.91;100.00
49611;BME280;35515;48.766;9.176;2022-09-20T05:27:32;98898.03;;;9.94;100.00
49611;BME280;35515;48.766;9.176;2022-09-20T05:30:04;98899.56;;;9.81;100.00
49611;BME280;35515;48.766;9.176;2022-09-20T05:32:38;98904.50;;;9.78;100.00
49611;BME280;35515;48.766;9.176;2022-09-20T05:35:18;98907.41;;;9.76;100.00
49611;BME280;35515;48.766;9.176;2022-09-20T05:37:55;98903.31;;;9.80;100.00
49611;BME280;35515;48.766;9.176;2022-09-20T05:40:30;98907.63;;;9.96;100.00
49611;BME280;35515;48.766;9.176;2022-09-20T05:43:01;98897.50;;;9.83;100.00
49611;BME280;35515;48.766;9.176;2022-09-20T05:45:46;98904.03;;;9.74;100.00
49611;BME280;35515;48.766;9.176;2022-09-20T05:48:18;98904.50;;;9.78;100.00
49611;BME280;35515;48.766;9.176;2022-09-20T05:50:54;98908.34;;;9.68;100.00
49611;BME280;35515;48.766;9.176;2022-09-20T05:53:38;98910.97;;;9.62;100.00
49611;BME280;35515;48.766;9.176;2022-09-20T05:56:15;98921.34;;;9.73;100.00
49611;BME280;35515;48.766;9.176;2022-09-20T05:58:54;98918.72;;;9.65;100.00
49611;BME280;35515;48.766;9.176;2022-09-20T06:01:25;98915.44;;;9.69;100.00
49611;BME280;35515;48.766;9.176;2022-09-20T06:03:54;98917.84;;;9.79;100.00
49611;BME280;35515;48.766;9.176;2022-09-20T06:06:28;98924.19;;;9.86;100.00
49611;BME280;35515;48.766;9.176;2022-09-20T06:09:09;98925.41;;;9.84;100.00
49611;BME280;35515;48.766;9.176;2022-09-20T06:11:55;98918.41;;;9.90;100.00
49611;BME280;35515;48.766;9.176;2022-09-20T06:14:37;98923.72;;;9.83;100.00
49611;BME280;35515;48.766;9.176;2022-09-20T06:17:15;98925.13;;;9.79;100.00
49611;BME280;35515;48.766;9.176;2022-09-20T06:19:46;98932.94;;;9.88;100.00
49611;BME280;35515;48.766;9.176;2022-09-20T06:22:18;98931.44;;;10.01;98.84
49611;BME280;35515;48.766;9.176;2022-09-20T06:24:54;98928.34;;;10.04;98.92
49611;BME280;35515;48.766;9.176;2022-09-20T06:27:28;98916.34;;;9.92;96.80
49611;BME280;35515;48.766;9.176;2022-09-20T06:30:00;98924.63;;;9.90;96.63
49611;BME280;35515;48.766;9.176;2022-09-20T06:32:29;98924.72;;;9.97;97.08
49611;BME280;35515;48.766;9.176;2022-09-20T06:34:58;98929.56;;;10.01;97.34
49611;BME280;35515;48.766;9.176;2022-09-20T06:37:38;98927.81;;;9.94;94.70
49611;BME280;35515;48.766;9.176;2022-09-20T06:40:36;98935.84;;;9.87;95.43
49611;BME280;35515;48.766;9.176;2022-09-20T06:43:22;98935.09;;;9.93;94.63
49611;BME280;35515;48.766;9.176;2022-09-20T06:45:51;98943.84;;;9.95;96.49
49611;BME280;35515;48.766;9.176;2022-09-20T06:48:18;98946.81;;;10.00;94.93
49611;BME280;35515;48.766;9.176;2022-09-20T06:50:44;98948.25;;;9.96;94.82
49611;BME280;35515;48.766;9.176;2022-09-20T06:53:14;98954.75;;;10.02;93.86
49611;BME280;35515;48.766;9.176;2022-09-20T06:55:43;98948.03;;;9.98;94.26
49611;BME280;35515;48.766;9.176;2022-09-20T06:58:11;98952.06;;;10.02;93.71
49611;BME280;35515;48.766;9.176;2022-09-20T07:00:37;98958.50;;;10.01;93.37
49611;BME280;35515;48.766;9.176;2022-09-20T07:03:05;98950.28;;;10.09;93.01
49611;BME280;35515;48.766;9.176;2022-09-20T07:05:32;98953.41;;;10.13;92.79
49611;BME280;35515;48.766;9.176;2022-09-20T07:07:59;98949.22;;;10.10;92.83
49611;BME280;35515;48.766;9.176;2022-09-20T07:10:26;98954.41;;;10.05;93.22
49611;BME280;35515;48.766;9.176;2022-09-20T07:12:55;98950.72;;;10.13;92.17
49611;BME280;35515;48.766;9.176;2022-09-20T07:15:24;98958.66;;;10.14;91.60
49611;BME280;35515;48.766;9.176;2022-09-20T07:17:50;98962.81;;;10.17;90.26
49611;BME280;35515;48.766;9.176;2022-09-20T07:20:17;98962.28;;;10.21;89.81
49611;BME280;35515;48.766;9.176;2022-09-20T07:22:45;98968.31;;;10.39;88.73
49611;BME280;35515;48.766;9.176;2022-09-20T07:25:11;98977.75;;;10.28;89.44
49611;BME280;35515;48.766;9.176;2022-09-20T07:27:38;98965.41;;;10.40;88.54
49611;BME280;35515;48.766;9.176;2022-09-20T07:30:08;98980.22;;;10.23;89.90
49611;BME280;35515;48.766;9.176;2022-09-20T07:32:36;98970.78;;;10.18;90.54
49611;BME280;35515;48.766;9.176;2022-09-20T07:35:03;98976.22;;;10.18;90.61
49611;BME280;35515;48.766;9.176;2022-09-20T07:37:29;98972.97;;;10.30;89.28
49611;BME280;35515;48.766;9.176;2022-09-20T07:39:56;98971.69;;;10.26;88.88
49611;BME280;35515;48.766;9.176;2022-09-20T07:42:22;98963.38;;;10.27;87.69
49611;BME280;35515;48.766;9.176;2022-09-20T07:44:49;98976.72;;;10.29;87.95
49611;BME280;35515;48.766;9.176;2022-09-20T07:47:18;98975.44;;;10.40;87.55
49611;BME280;35515;48.766;9.176;2022-09-20T07:49:45;98974.00;;;10.44;86.50
49611;BME280;35515;48.766;9.176;2022-09-20T07:52:12;98976.66;;;10.37;86.70
49611;BME280;35515;48.766;9.176;2022-09-20T07:54:38;98971.72;;;10.47;86.61
49611;BME280;35515;48.766;9.176;2022-09-20T07:57:05;98977.94;;;10.63;85.97
49611;BME280;35515;48.766;9.176;2022-09-20T07:59:32;98981.22;;;10.58;84.56
49611;BME280;35515;48.766;9.176;2022-09-20T08:01:58;98980.25;;;10.66;83.11
49611;BME280;35515;48.766;9.176;2022-09-20T08:04:27;98984.50;;;10.75;81.33
49611;BME280;35515;48.766;9.176;2022-09-20T08:06:53;98986.31;;;10.90;78.81
49611;BME280;35515;48.766;9.176;2022-09-20T08:09:21;98981.34;;;10.71;79.17
49611;BME280;35515;48.766;9.176;2022-09-20T08:11:47;98985.59;;;10.81;81.72
49611;BME280;35515;48.766;9.176;2022-09-20T08:14:15;98999.34;;;10.79;81.79
49611;BME280;35515;48.766;9.176;2022-09-20T08:16:44;98995.03;;;10.85;80.77
49611;BME280;35515;48.766;9.176;2022-09-20T08:19:14;99006.06;;;10.83;80.17
49611;BME280;35515;48.766;9.176;2022-09-20T08:21:43;99000.41;;;10.78;80.24
49611;BME280;35515;48.766;9.176;2022-09-20T08:24:09;98997.41;;;10.95;79.22
49611;BME280;35515;48.766;9.176;2022-09-20T08:26:36;99001.59;;;10.97;78.96
49611;BME280;35515;48.766;9.176;2022-09-20T08:29:03;99009.41;;;10.85;78.83
49611;BME280;35515;48.766;9.176;2022-09-20T08:31:32;99005.53;;;10.95;77.35
49611;BME280;35515;48.766;9.176;2022-09-20T08:34:01;98998.88;;;10.97;76.15
49611;BME280;35515;48.766;9.176;2022-09-20T08:36:30;99000.38;;;11.00;76.68
49611;BME280;35515;48.766;9.176;2022-09-20T08:38:58;98997.91;;;11.05;76.04
49611;BME280;35515;48.766;9.176;2022-09-20T08:41:27;99005.91;;;11.13;74.41
49611;BME280;35515;48.766;9.176;2022-09-20T08:43:58;98999.25;;;11.16;74.11
49611;BME280;35515;48.766;9.176;2022-09-20T08:46:28;98998.03;;;11.18;73.97
49611;BME280;35515;48.766;9.176;2022-09-20T08:48:56;98994.84;;;11.15;75.40
49611;BME280;35515;48.766;9.176;2022-09-20T08:51:27;98992.97;;;11.15;76.25
49611;BME280;35515;48.766;9.176;2022-09-20T08:53:58;99007.00;;;11.19;75.65
49611;BME280;35515;48.766;9.176;2022-09-20T08:56:27;99000.47;;;11.13;75.32
49611;BME280;35515;48.766;9.176;2022-09-20T08:58:54;99000.28;;;11.15;74.81
49611;BME280;35515;48.766;9.176;2022-09-20T09:01:26;98998.03;;;11.18;74.47
49611;BME280;35515;48.766;9.176;2022-09-20T09:03:56;98991.22;;;11.29;73.08
49611;BME280;35515;48.766;9.176;2022-09-20T09:06:24;99002.31;;;11.34;70.69
49611;BME280;35515;48.766;9.176;2022-09-20T09:08:51;98993.72;;;11.31;70.72
49611;BME280;35515;48.766;9.176;2022-09-20T09:11:20;99002.19;;;11.49;70.32
49611;BME280;35515;48.766;9.176;2022-09-20T09:13:51;98994.84;;;11.43;70.77
49611;BME280;35515;48.766;9.176;2022-09-20T09:16:20;98994.84;;;11.43;70.51
49611;BME280;35515;48.766;9.176;2022-09-20T09:18:47;98989.47;;;11.50;70.36
49611;BME280;35515;48.766;9.176;2022-09-20T09:21:17;98994.94;;;11.57;68.89
49611;BME280;35515;48.766;9.176;2022-09-20T09:23:49;98996.56;;;11.51;68.74
49611;BME280;35515;48.766;9.176;2022-09-20T09:26:21;98994.06;;;11.49;68.60
49611;BME280;35515;48.766;9.176;2022-09-20T09:29:07;98995.66;;;11.37;70.08
49611;BME280;35515;48.766;9.176;2022-09-20T09:31:34;98992.66;;;11.25;70.55
49611;BME280;35515;48.766;9.176;2022-09-20T09:34:02;98997.72;;;11.35;71.33
49611;BME280;35515;48.766;9.176;2022-09-20T09:36:29;98986.09;;;11.41;71.93
49611;BME280;35515;48.766;9.176;2022-09-20T09:39:13;98987.34;;;11.45;72.28
49611;BME280;35515;48.766;9.176;2022-09-20T09:41:42;98988.78;;;11.41;72.94
49611;BME280;35515;48.766;9.176;2022-09-20T09:44:19;98987.00;;;11.55;72.97
49611;BME280;35515;48.766;9.176;2022-09-20T09:46:46;98971.59;;;11.62;71.60
49611;BME280;35515;48.766;9.176;2022-09-20T09:49:16;98984.97;;;11.64;70.46
49611;BME280;35515;48.766;9.176;2022-09-20T09:52:00;98971.78;;;11.61;70.57
49611;BME280;35515;48.766;9.176;2022-09-20T09:54:29;98980.34;;;11.58;70.66
49611;BME280;35515;48.766;9.176;2022-09-20T09:57:08;98988.72;;;11.63;69.42
49611;BME280;35515;48.766;9.176;2022-09-20T09:59:50;98985.78;;;11.64;69.70
49611;BME280;35515;48.766;9.176;2022-09-20T10:02:32;98992.50;;;11.68;69.26
49611;BME280;35515;48.766;9.176;2022-09-20T10:05:13;98987.91;;;11.69;68.55
49611;BME280;35515;48.766;9.176;2022-09-20T10:07:45;98986.13;;;11.90;67.14
49611;BME280;35515;48.766;9.176;2022-09-20T10:10:23;98986.75;;;11.85;67.75
49611;BME280;35515;48.766;9.176;2022-09-20T10:13:07;98993.00;;;11.85;67.17
49611;BME280;35515;48.766;9.176;2022-09-20T10:15:40;98986.75;;;11.85;67.92
49611;BME280;35515;48.766;9.176;2022-09-20T10:18:33;98987.88;;;11.97;66.54
49611;BME280;35515;48.766;9.176;2022-09-20T10:21:10;98977.47;;;12.01;64.65
49611;BME280;35515;48.766;9.176;2022-09-20T10:23:53;98986.00;;;11.98;65.64
49611;BME280;35515;48.766;9.176;2022-09-20T10:26:37;98981.41;;;11.98;65.66
49611;BME280;35515;48.766;9.176;2022-09-20T10:29:15;98982.69;;;12.02;66.35
49611;BME280;35515;48.766;9.176;2022-09-20T10:31:54;98975.53;;;11.95;65.79
49611;BME280;35515;48.766;9.176;2022-09-20T10:34:42;98979.94;;;11.96;65.66
49611;BME280;35515;48.766;9.176;2022-09-20T10:37:15;98981.81;;;12.02;66.16
49611;BME280;35515;48.766;9.176;2022-09-20T10:39:50;98976.84;;;12.12;66.11
49611;BME280;35515;48.766;9.176;2022-09-20T10:42:27;98972.69;;;12.16;66.59
49611;BME280;35515;48.766;9.176;2022-09-20T10:45:18;98980.25;;;12.28;65.50
49611;BME280;35515;48.766;9.176;2022-09-20T10:47:51;98975.00;;;12.19;64.31
49611;BME280;35515;48.766;9.176;2022-09-20T10:50:28;98984.00;;;12.27;63.63
49611;BME280;35515;48.766;9.176;2022-09-20T10:53:10;98986.09;;;12.25;62.69
49611;BME280;35515;48.766;9.176;2022-09-20T10:55:45;98984.00;;;12.27;62.16
49611;BME280;35515;48.766;9.176;2022-09-20T11:01:29;98976.31;;;12.37;59.08
49611;BME280;35515;48.766;9.176;2022-09-20T11:04:17;98982.16;;;12.47;59.18
49611;BME280;35515;48.766;9.176;2022-09-20T11:06:49;98979.66;;;12.39;60.35
49611;BME280;35515;48.766;9.176;2022-09-20T11:09:22;98984.66;;;12.35;60.28
49611;BME280;35515;48.766;9.176;2022-09-20T11:11:53;98984.88;;;12.41;60.07
49611;BME280;35515;48.766;9.176;2022-09-20T11:14:27;98983.81;;;12.35;61.66
49611;BME280;35515;48.766;9.176;2022-09-20T11:17:00;98973.78;;;12.42;61.76
49611;BME280;35515;48.766;9.176;2022-09-20T11:19:39;98976.13;;;12.45;61.51
49611;BME280;35515;48.766;9.176;2022-09-20T11:22:12;98969.25;;;12.56;60.28
49611;BME280;35515;48.766;9.176;2022-09-20T11:24:42;98969.47;;;12.68;58.98
49611;BME280;35515;48.766;9.176;2022-09-20T11:27:14;98976.59;;;12.82;58.32
49611;BME280;35515;48.766;9.176;2022-09-20T11:29:47;98972.41;;;12.86;55.54
49611;BME280;35515;48.766;9.176;2022-09-20T11:32:20;98975.34;;;12.78;55.13
49611;BME280;35515;48.766;9.176;2022-09-20T11:34:51;98968.00;;;12.72;56.17
49611;BME280;35515;48.766;9.176;2022-09-20T11:37:22;98960.28;;;12.69;57.50
49611;BME280;35515;48.766;9.176;2022-09-20T11:39:52;98965.28;;;12.79;58.12
49611;BME280;35515;48.766;9.176;2022-09-20T11:42:22;98966.56;;;12.90;58.67
49611;BME280;35515;48.766;9.176;2022-09-20T11:44:50;98973.25;;;12.94;57.45
49611;BME280;35515;48.766;9.176;2022-09-20T11:47:23;98977.44;;;12.96;55.93
49611;BME280;35515;48.766;9.176;2022-09-20T11:50:06;98979.13;;;12.97;56.25
49611;BME280;35515;48.766;9.176;2022-09-20T11:52:50;98977.44;;;12.96;56.16
49611;BME280;35515;48.766;9.176;2022-09-20T11:55:30;98977.84;;;12.86;57.67
49611;BME280;35515;48.766;9.176;2022-09-20T11:58:03;98970.75;;;12.85;57.50
49611;BME280;35515;48.766;9.176;2022-09-20T12:00:34;98972.00;;;12.83;58.21
49611;BME280;35515;48.766;9.176;2022-09-20T12:03:06;98974.91;;;12.81;58.58
49611;BME280;35515;48.766;9.176;2022-09-20T12:05:38;98963.41;;;12.79;58.95
49611;BME280;35515;48.766;9.176;2022-09-20T12:08:07;98965.50;;;12.84;58.09
49611;BME280;35515;48.766;9.176;2022-09-20T12:10:54;98961.94;;;12.90;55.30
49611;BME280;35515;48.766;9.176;2022-09-20T12:13:24;98952.75;;;12.84;55.74
49611;BME280;35515;48.766;9.176;2022-09-20T12:16:01;98951.91;;;12.77;56.31
49611;BME280;35515;48.766;9.176;2022-09-20T12:18:35;98941.88;;;12.84;54.67
49611;BME280;35515;48.766;9.176;2022-09-20T12:21:09;98937.47;;;12.90;52.90
49611;BME280;35515;48.766;9.176;2022-09-20T12:24:15;98936.22;;;12.93;54.24
49611;BME280;35515;48.766;9.176;2022-09-20T12:26:44;98935.59;;;12.91;50.94
49611;BME280;35515;48.766;9.176;2022-09-20T12:32:47;98932.66;;;13.05;50.24
49611;BME280;35515;48.766;9.176;2022-09-20T12:38:46;98930.97;;;13.11;49.20
49611;BME280;35515;48.766;9.176;2022-09-20T12:41:15;98933.09;;;13.09;50.35
49611;BME280;35515;48.766;9.176;2022-09-20T12:44:02;98930.38;;;13.09;50.64
49611;BME280;35515;48.766;9.176;2022-09-20T12:46:41;98921.31;;;13.22;51.48
49611;BME280;35515;48.766;9.176;2022-09-20T12:49:17;98929.91;;;13.26;52.44
49611;BME280;35515;48.766;9.176;2022-09-20T12:52:20;98925.50;;;13.31;53.11
49611;BME280;35515;48.766;9.176;2022-09-20T12:55:08;98920.91;;;13.32;52.65
49611;BME280;35515;48.766;9.176;2022-09-20T12:57:36;98925.91;;;13.35;53.20
49611;BME280;35515;48.766;9.176;2022-09-20T13:00:06;98925.31;;;13.33;53.61
49611;BME280;35515;48.766;9.176;2022-09-20T13:02:41;98927.59;;;13.43;53.17
49611;BME280;35515;48.766;9.176;2022-09-20T13:05:34;98927.63;;;13.36;50.92
49611;BME280;35515;48.766;9.176;2022-09-20T13:08:09;98930.75;;;13.46;51.12
49611;BME280;35515;48.766;9.176;2022-09-20T13:10:44;98925.50;;;13.25;50.75
49611;BME280;35515;48.766;9.176;2022-09-20T13:13:22;98930.13;;;13.17;50.91
49611;BME280;35515;48.766;9.176;2022-09-20T13:15:54;98924.47;;;13.26;48.66
49611;BME280;35515;48.766;9.176;2022-09-20T13:18:23;98919.66;;;13.34;48.76
49611;BME280;35515;48.766;9.176;2022-09-20T13:20:52;98925.50;;;13.38;49.51
49611;BME280;35515;48.766;9.176;2022-09-20T13:23:23;98922.78;;;13.45;49.27
49611;BME280;35515;48.766;9.176;2022-09-20T13:25:54;98914.81;;;13.43;49.83
49611;BME280;35515;48.766;9.176;2022-09-20T13:28:31;98917.97;;;13.47;50.15
49611;BME280;35515;48.766;9.176;2022-09-20T13:31:23;98922.09;;;13.63;50.52
49611;BME280;35515;48.766;9.176;2022-09-20T13:33:51;98928.78;;;13.67;50.69
49611;BME280;35515;48.766;9.176;2022-09-20T13:36:23;98922.53;;;13.60;50.83
49611;BME280;35515;48.766;9.176;2022-09-20T13:38:52;98917.72;;;13.55;52.19
49611;BME280;35515;48.766;9.176;2022-09-20T13:41:21;98915.41;;;13.59;52.47
49611;BME280;35515;48.766;9.176;2022-09-20T13:43:48;98912.50;;;13.53;52.81
49611;BME280;35515;48.766;9.176;2022-09-20T13:46:21;98917.09;;;13.60;52.63
49611;BME280;35515;48.766;9.176;2022-09-20T13:48:52;98921.31;;;13.56;52.55
49611;BME280;35515;48.766;9.176;2022-09-20T13:51:23;98920.63;;;13.67;50.53
49611;BME280;35515;48.766;9.176;2022-09-20T13:53:50;98917.09;;;13.60;51.02
49611;BME280;35515;48.766;9.176;2022-09-20T13:56:21;98915.81;;;13.69;51.32
49611;BME280;35515;48.766;9.176;2022-09-20T13:58:50;98926.31;;;13.59;52.62
49611;BME280;35515;48.766;9.176;2022-09-20T14:01:27;98922.94;;;13.57;53.71
49611;BME280;35515;48.766;9.176;2022-09-20T14:04:04;98925.69;;;13.57;54.52
49611;BME280;35515;48.766;9.176;2022-09-20T14:06:32;98939.31;;;13.50;55.02
49611;BME280;35515;48.766;9.176;2022-09-20T14:09:02;98947.03;;;13.60;54.87
49611;BME280;35515;48.766;9.176;2022-09-20T14:11:31;98945.19;;;13.47;56.15
49611;BME280;35515;48.766;9.176;2022-09-20T14:14:02;98946.88;;;13.41;56.35
49611;BME280;35515;48.766;9.176;2022-09-20T14:16:32;98952.34;;;13.14;57.64